createdAt,value
2022-11-17T00:00:27.769Z,5.78
2022-11-17T00:02:55.817Z,5.10
2022-11-17T00:05:22.808Z,4.85
2022-11-17T00:07:49.958Z,5.37
2022-11-17T00:10:17.677Z,5.18
2022-11-17T00:13:02.727Z,5.65
2022-11-17T00:15:29.517Z,5.40
2022-11-17T00:18:18.627Z,5.28
2022-11-17T00:21:04.192Z,5.17
2022-11-17T00:23:51.157Z,5.25
2022-11-17T00:26:32.159Z,5.57
2022-11-17T00:29:01.334Z,4.82
2022-11-17T00:31:48.716Z,5.00
2022-11-17T00:34:18.050Z,5.93
2022-11-17T00:36:47.369Z,5.65
2022-11-17T00:39:15.999Z,5.43
2022-11-17T00:41:42.890Z,5.82
2022-11-17T00:44:09.927Z,6.00
2022-11-17T00:46:38.500Z,5.90
2022-11-17T00:49:06.851Z,5.70
2022-11-17T00:51:34.092Z,5.10
2022-11-17T00:54:01.361Z,5.53
2022-11-17T00:56:28.218Z,5.72
2022-11-17T00:58:55.368Z,5.23
2022-11-17T01:01:21.928Z,5.07
2022-11-17T01:03:49.719Z,5.63
2022-11-17T01:06:19.060Z,5.85
2022-11-17T01:08:46.744Z,5.68
2022-11-17T01:11:16.518Z,5.17
2022-11-17T01:13:44.336Z,5.40
2022-11-17T01:16:17.625Z,6.18
2022-11-17T01:18:47.249Z,4.47
2022-11-17T01:21:18.017Z,5.47
2022-11-17T01:23:46.034Z,5.30
2022-11-17T01:26:21.734Z,5.75
2022-11-17T01:28:49.161Z,4.88
2022-11-17T01:31:22.242Z,3.90
2022-11-17T01:33:49.261Z,5.75
2022-11-17T01:36:27.913Z,5.27
2022-11-17T01:38:55.095Z,5.22
2022-11-17T01:41:27.732Z,3.90
2022-11-17T01:43:58.288Z,4.63
2022-11-17T01:46:39.868Z,4.82
2022-11-17T01:49:06.379Z,4.90
2022-11-17T01:51:36.896Z,4.90
2022-11-17T01:54:03.752Z,4.97
2022-11-17T01:56:38.782Z,5.22
2022-11-17T01:59:21.459Z,4.47
2022-11-17T02:01:58.033Z,4.13
2022-11-17T02:04:27.208Z,3.60
2022-11-17T02:06:59.635Z,5.47
2022-11-17T02:09:26.262Z,5.00
2022-11-17T02:11:53.810Z,5.35
2022-11-17T02:14:20.475Z,4.53
2022-11-17T02:16:47.194Z,4.57
2022-11-17T02:19:16.471Z,3.75
2022-11-17T02:22:09.339Z,4.57
2022-11-17T02:25:11.092Z,4.47
2022-11-17T02:27:46.539Z,4.80
2022-11-17T02:30:23.436Z,4.28
2022-11-17T02:33:03.853Z,4.05
2022-11-17T02:35:45.428Z,3.88
2022-11-17T02:38:49.478Z,3.38
2022-11-17T02:41:22.883Z,4.80
2022-11-17T02:44:08.405Z,4.70
2022-11-17T02:46:46.896Z,4.57
2022-11-17T02:49:24.476Z,4.50
2022-11-17T02:51:55.314Z,5.50
2022-11-17T02:54:24.785Z,4.83
2022-11-17T02:56:51.336Z,4.43
2022-11-17T02:59:23.384Z,5.15
2022-11-17T03:01:55.760Z,3.55
2022-11-17T03:04:28.791Z,5.25
2022-11-17T03:07:18.844Z,4.97
2022-11-17T03:10:02.450Z,4.63
2022-11-17T03:12:47.958Z,4.97
2022-11-17T03:15:35.921Z,4.30
2022-11-17T03:18:17.540Z,4.63
2022-11-17T03:20:57.242Z,4.80
2022-11-17T03:23:40.661Z,4.70
2022-11-17T03:26:13.331Z,4.40
2022-11-17T03:28:41.985Z,4.78
2022-11-17T03:31:10.287Z,5.03
2022-11-17T03:33:39.143Z,4.77
2022-11-17T03:36:13.613Z,4.90
2022-11-17T03:38:51.048Z,5.05
2022-11-17T03:41:20.676Z,4.78
2022-11-17T03:43:51.765Z,5.22
2022-11-17T03:46:21.233Z,5.30
2022-11-17T03:48:55.180Z,4.55
2022-11-17T03:51:26.639Z,4.75
2022-11-17T03:53:54.529Z,4.30
2022-11-17T03:56:39.635Z,4.75
2022-11-17T03:59:34.278Z,5.50
2022-11-17T04:02:01.041Z,4.28
2022-11-17T04:04:47.767Z,5.38
2022-11-17T04:07:14.398Z,4.85
2022-11-17T04:09:41.048Z,4.25
2022-11-17T04:12:26.878Z,4.80
2022-11-17T04:15:11.984Z,5.28
2022-11-17T04:17:38.865Z,5.32
2022-11-17T04:20:06.090Z,5.30
2022-11-17T04:22:32.693Z,4.55
2022-11-17T04:24:59.249Z,5.20
2022-11-17T04:27:44.597Z,5.75
2022-11-17T04:30:11.486Z,5.65
2022-11-17T04:32:38.022Z,5.53
2022-11-17T04:35:04.883Z,5.28
2022-11-17T04:37:31.425Z,5.47
2022-11-17T04:39:58.062Z,5.53
2022-11-17T04:42:24.655Z,6.05
2022-11-17T04:44:51.165Z,5.82
2022-11-17T04:47:17.753Z,5.38
2022-11-17T04:49:44.345Z,3.57
2022-11-17T04:52:10.868Z,3.70
2022-11-17T04:54:37.535Z,5.35
2022-11-17T04:57:04.194Z,5.57
2022-11-17T04:59:30.741Z,5.80
2022-11-17T05:02:02.541Z,4.80
2022-11-17T05:04:50.928Z,6.22
2022-11-17T05:07:17.499Z,5.20
2022-11-17T05:09:44.087Z,5.88
2022-11-17T05:12:29.069Z,6.50
2022-11-17T05:14:55.626Z,6.03
2022-11-17T05:17:22.166Z,5.93
2022-11-17T05:19:49.055Z,4.75
2022-11-17T05:22:36.784Z,5.55
2022-11-17T05:25:04.609Z,6.03
2022-11-17T05:27:33.261Z,5.50
2022-11-17T05:30:00.978Z,5.88
2022-11-17T05:32:27.545Z,5.70
2022-11-17T05:34:54.137Z,6.07
2022-11-17T05:37:20.768Z,6.00
2022-11-17T05:39:47.378Z,6.63
2022-11-17T05:42:13.945Z,5.90
2022-11-17T05:44:40.524Z,6.82
2022-11-17T05:47:07.240Z,5.43
2022-11-17T05:49:33.741Z,6.30
2022-11-17T05:52:00.362Z,6.73
2022-11-17T05:54:26.994Z,5.82
2022-11-17T05:57:02.939Z,6.28
2022-11-17T05:59:43.720Z,7.40
2022-11-17T06:02:32.976Z,5.50
2022-11-17T06:04:59.553Z,6.60
2022-11-17T06:07:26.463Z,6.78
2022-11-17T06:09:53.514Z,7.20
2022-11-17T06:12:20.091Z,6.28
2022-11-17T06:14:46.679Z,6.63
2022-11-17T06:17:22.828Z,6.97
2022-11-17T06:19:58.303Z,5.82
2022-11-17T06:22:26.888Z,5.95
2022-11-17T06:24:54.953Z,6.70
2022-11-17T06:27:22.089Z,5.88
2022-11-17T06:29:49.647Z,5.10
2022-11-17T06:32:18.712Z,7.20
2022-11-17T06:34:53.699Z,7.15
2022-11-17T06:37:22.093Z,5.30
2022-11-17T06:39:48.669Z,7.00
2022-11-17T06:42:15.239Z,6.50
2022-11-17T06:44:42.192Z,7.20
2022-11-17T06:47:08.735Z,6.15
2022-11-17T06:49:35.306Z,6.32
2022-11-17T06:52:01.794Z,7.20
2022-11-17T06:54:28.772Z,6.33
2022-11-17T06:56:55.486Z,6.32
2022-11-17T06:59:22.129Z,6.88
2022-11-17T07:01:48.684Z,4.88
2022-11-17T07:04:15.379Z,6.65
2022-11-17T07:06:41.886Z,4.97
2022-11-17T07:09:08.642Z,5.47
2022-11-17T07:11:38.413Z,7.25
2022-11-17T07:14:05.059Z,6.78
2022-11-17T07:16:32.657Z,6.82
2022-11-17T07:18:59.817Z,6.27
2022-11-17T07:21:26.535Z,6.68
2022-11-17T07:23:53.414Z,6.32
2022-11-17T07:26:20.082Z,6.70
2022-11-17T07:28:46.680Z,6.13
2022-11-17T07:31:13.262Z,7.30
2022-11-17T07:33:39.826Z,7.05
2022-11-17T07:36:09.767Z,6.28
2022-11-17T07:38:38.144Z,6.75
2022-11-17T07:41:05.970Z,4.93
2022-11-17T07:43:33.870Z,5.63
2022-11-17T07:46:05.589Z,6.63
2022-11-17T07:48:32.892Z,5.22
2022-11-17T07:51:00.718Z,5.72
2022-11-17T07:53:29.064Z,5.15
2022-11-17T07:55:56.199Z,5.93
2022-11-17T07:58:25.414Z,6.55
2022-11-17T08:00:52.138Z,5.25
2022-11-17T08:03:18.885Z,6.28
2022-11-17T08:05:45.594Z,5.50
2022-11-17T08:08:13.509Z,5.40
2022-11-17T08:10:40.463Z,5.93
2022-11-17T08:13:07.549Z,5.43
2022-11-17T08:15:35.203Z,5.60
2022-11-17T08:18:01.839Z,5.30
2022-11-17T08:20:29.464Z,5.37
2022-11-17T08:22:56.823Z,4.25
2022-11-17T08:25:25.308Z,5.35
2022-11-17T08:27:55.320Z,4.90
2022-11-17T08:30:23.476Z,5.32
2022-11-17T08:32:52.785Z,4.83
2022-11-17T08:35:21.630Z,5.65
2022-11-17T08:37:48.414Z,5.60
2022-11-17T08:40:15.422Z,5.60
2022-11-17T08:42:42.239Z,5.15
2022-11-17T08:45:10.562Z,4.87
2022-11-17T08:47:38.057Z,7.05
2022-11-17T08:50:06.755Z,6.15
2022-11-17T08:52:33.387Z,6.50
2022-11-17T08:55:00.809Z,5.93
2022-11-17T08:57:30.119Z,6.33
2022-11-17T08:59:56.773Z,6.18
2022-11-17T09:02:23.834Z,4.82
2022-11-17T09:04:50.632Z,6.03
2022-11-17T09:07:17.804Z,5.25
2022-11-17T09:09:46.167Z,4.60
2022-11-17T09:12:13.233Z,6.60
2022-11-17T09:14:39.934Z,4.60
2022-11-17T09:17:07.194Z,6.20
2022-11-17T09:19:33.787Z,6.57
2022-11-17T09:22:00.384Z,6.60
2022-11-17T09:24:27.224Z,4.75
2022-11-17T09:26:54.682Z,4.93
2022-11-17T09:29:21.928Z,6.25
2022-11-17T09:31:48.939Z,5.20
2022-11-17T09:34:16.937Z,6.13
2022-11-17T09:36:43.953Z,4.65
2022-11-17T09:39:10.682Z,5.97
2022-11-17T09:41:43.471Z,6.00
2022-11-17T09:44:25.728Z,5.57
2022-11-17T09:47:24.666Z,5.40
2022-11-17T09:50:03.742Z,5.45
2022-11-17T09:52:43.421Z,4.57
2022-11-17T09:55:21.521Z,6.03
2022-11-17T09:57:58.324Z,5.60
2022-11-17T10:00:25.565Z,5.23
2022-11-17T10:02:54.008Z,6.18
2022-11-17T10:05:33.011Z,5.90
2022-11-17T10:08:06.177Z,5.72
2022-11-17T10:10:51.532Z,6.20
2022-11-17T10:13:33.400Z,5.70
2022-11-17T10:16:11.722Z,6.10
2022-11-17T10:18:39.367Z,5.80
2022-11-17T10:21:09.168Z,5.57
2022-11-17T10:23:45.906Z,5.55
2022-11-17T10:26:15.355Z,5.30
2022-11-17T10:28:42.590Z,5.75
2022-11-17T10:31:17.752Z,6.13
2022-11-17T10:33:47.693Z,5.07
2022-11-17T10:36:24.541Z,4.85
2022-11-17T10:38:54.238Z,4.37
2022-11-17T10:41:42.647Z,4.53
2022-11-17T10:44:12.865Z,3.92
2022-11-17T10:47:02.974Z,4.97
2022-11-17T10:49:35.207Z,4.53
2022-11-17T10:52:08.921Z,4.87
2022-11-17T10:54:35.820Z,4.72
2022-11-17T10:57:07.036Z,4.93
2022-11-17T10:59:43.535Z,3.88
2022-11-17T11:02:31.621Z,5.00
2022-11-17T11:05:19.833Z,5.00
2022-11-17T11:07:46.497Z,3.92
2022-11-17T11:10:17.825Z,5.13
2022-11-17T11:13:14.692Z,4.70
2022-11-17T11:15:41.460Z,4.10
2022-11-17T11:18:16.895Z,4.80
2022-11-17T11:21:22.578Z,3.40
2022-11-17T11:23:55.208Z,4.10
2022-11-17T11:26:46.864Z,4.75
2022-11-17T11:29:29.971Z,3.35
2022-11-17T11:32:36.897Z,4.37
2022-11-17T11:35:21.776Z,4.38
2022-11-17T11:38:09.513Z,4.68
2022-11-17T11:40:39.997Z,4.93
2022-11-17T11:43:25.035Z,4.65
2022-11-17T11:46:06.033Z,3.90
2022-11-17T11:48:36.544Z,3.47
2022-11-17T11:51:19.373Z,4.95
2022-11-17T11:53:57.611Z,4.57
2022-11-17T11:56:33.003Z,3.92
2022-11-17T11:59:07.189Z,4.20
2022-11-17T12:01:41.636Z,4.45
2022-11-17T12:04:24.547Z,2.72
2022-11-17T12:07:19.477Z,4.45
2022-11-17T12:10:01.377Z,3.25
2022-11-17T12:12:32.160Z,4.20
2022-11-17T12:15:18.535Z,4.40
2022-11-17T12:18:00.272Z,3.42
2022-11-17T12:20:46.615Z,3.90
2022-11-17T12:23:44.042Z,4.18
2022-11-17T12:26:22.433Z,4.23
2022-11-17T12:28:49.044Z,4.75
2022-11-17T12:31:24.749Z,4.28
2022-11-17T12:33:54.687Z,4.88
2022-11-17T12:36:30.033Z,3.42
2022-11-17T12:39:02.471Z,4.77
2022-11-17T12:41:47.330Z,4.57
2022-11-17T12:44:38.480Z,4.35
2022-11-17T12:47:21.907Z,4.63
2022-11-17T12:50:07.070Z,5.80
2022-11-17T12:52:52.258Z,2.77
2022-11-17T12:55:18.843Z,4.25
2022-11-17T12:57:53.681Z,4.20
2022-11-17T13:00:23.247Z,5.07
2022-11-17T13:02:59.990Z,3.47
2022-11-17T13:05:30.111Z,3.60
2022-11-17T13:08:19.267Z,4.40
2022-11-17T13:10:45.879Z,4.88
2022-11-17T13:13:17.730Z,4.18
2022-11-17T13:15:45.337Z,5.22
2022-11-17T13:18:22.978Z,4.10
2022-11-17T13:20:49.553Z,4.35
2022-11-17T13:23:23.330Z,4.57
2022-11-17T13:26:55.722Z,4.57
2022-11-17T13:29:24.173Z,3.72
2022-11-17T13:32:04.428Z,4.37
2022-11-17T13:34:31.378Z,4.55
2022-11-17T13:37:00.563Z,4.97
2022-11-17T13:39:28.729Z,4.13
2022-11-17T13:42:00.975Z,4.45
2022-11-17T13:44:28.654Z,5.40
2022-11-17T13:46:56.135Z,5.63
2022-11-17T13:49:38.659Z,4.47
2022-11-17T13:52:15.012Z,5.60
2022-11-17T13:54:44.202Z,4.60
2022-11-17T13:57:26.279Z,4.87
2022-11-17T13:59:53.613Z,4.20
2022-11-17T14:02:20.171Z,4.78
2022-11-17T14:05:14.353Z,4.97
2022-11-17T14:07:42.681Z,5.22
2022-11-17T14:10:15.356Z,5.40
2022-11-17T14:12:42.356Z,4.45
2022-11-17T14:15:25.287Z,4.70
2022-11-17T14:17:54.684Z,4.53
2022-11-17T14:20:24.012Z,5.40
2022-11-17T14:23:17.470Z,4.77
2022-11-17T14:25:46.158Z,5.72
2022-11-17T14:28:22.934Z,5.00
2022-11-17T14:30:51.416Z,5.93
2022-11-17T14:33:18.323Z,5.13
2022-11-17T14:35:48.176Z,6.20
2022-11-17T14:38:18.123Z,5.10
2022-11-17T14:40:44.894Z,5.35
2022-11-17T14:43:11.966Z,5.45
2022-11-17T14:45:38.623Z,5.30
2022-11-17T14:48:08.231Z,4.82
2022-11-17T14:50:34.828Z,5.97
2022-11-17T14:53:01.398Z,5.22
2022-11-17T14:55:28.096Z,4.97
2022-11-17T14:57:55.440Z,5.53
2022-11-17T15:00:22.114Z,6.13
2022-11-17T15:02:49.067Z,6.80
2022-11-17T15:05:15.828Z,5.90
2022-11-17T15:07:43.293Z,5.93
2022-11-17T15:10:10.502Z,6.80
2022-11-17T15:12:37.211Z,4.43
2022-11-17T15:15:05.020Z,5.38
2022-11-17T15:17:31.905Z,6.60
2022-11-17T15:19:58.935Z,5.72
2022-11-17T15:22:25.506Z,6.57
2022-11-17T15:24:52.172Z,7.30
2022-11-17T15:27:18.810Z,6.68
2022-11-17T15:29:45.861Z,7.05
2022-11-17T15:32:12.483Z,6.38
2022-11-17T15:34:39.090Z,6.30
2022-11-17T15:37:05.669Z,6.07
2022-11-17T15:39:32.334Z,6.60
2022-11-17T15:41:58.994Z,6.65
2022-11-17T15:44:25.650Z,6.85
2022-11-17T15:46:52.249Z,6.75
2022-11-17T15:49:19.085Z,4.70
2022-11-17T15:51:45.903Z,5.43
2022-11-17T15:54:18.455Z,7.40
2022-11-17T15:56:46.839Z,6.78
2022-11-17T15:59:13.753Z,6.88
2022-11-17T16:01:41.076Z,6.50
2022-11-17T16:04:10.531Z,6.55
2022-11-17T16:06:39.614Z,8.32
2022-11-17T16:09:08.827Z,7.55
2022-11-17T16:11:36.333Z,9.20
2022-11-17T16:14:04.512Z,7.63
2022-11-17T16:16:35.849Z,7.30
2022-11-17T16:19:04.901Z,6.97
2022-11-17T16:21:32.057Z,6.70
2022-11-17T16:24:00.705Z,7.65
2022-11-17T16:26:28.633Z,6.47
2022-11-17T16:29:00.035Z,6.10
2022-11-17T16:31:29.154Z,6.45
2022-11-17T16:34:00.924Z,6.70
2022-11-17T16:36:35.982Z,6.55
2022-11-17T16:39:05.120Z,7.53
2022-11-17T16:41:34.380Z,6.60
2022-11-17T16:44:01.965Z,7.65
2022-11-17T16:46:31.005Z,6.47
2022-11-17T16:49:02.605Z,6.60
2022-11-17T16:51:29.821Z,7.57
2022-11-17T16:54:01.835Z,7.78
2022-11-17T16:56:29.048Z,6.45
2022-11-17T16:58:56.431Z,8.13
2022-11-17T17:01:25.974Z,6.55
2022-11-17T17:03:57.383Z,5.00
2022-11-17T17:06:24.626Z,7.18
2022-11-17T17:08:59.459Z,6.30
2022-11-17T17:11:28.994Z,5.38
2022-11-17T17:13:58.255Z,7.10
2022-11-17T17:16:25.736Z,7.63
2022-11-17T17:18:59.053Z,7.15
2022-11-17T17:21:26.413Z,8.13
2022-11-17T17:23:53.100Z,5.10
2022-11-17T17:26:22.231Z,5.07
2022-11-17T17:28:51.394Z,8.17
2022-11-17T17:31:21.961Z,6.70
2022-11-17T17:33:50.699Z,6.50
2022-11-17T17:36:19.600Z,8.10
2022-11-17T17:38:50.311Z,8.13
2022-11-17T17:41:22.691Z,8.50
2022-11-17T17:43:55.556Z,8.52
2022-11-17T17:46:22.289Z,7.75
2022-11-17T17:48:49.480Z,7.57
2022-11-17T17:51:19.737Z,9.10
2022-11-17T17:53:49.868Z,8.13
2022-11-17T17:56:18.182Z,8.82
2022-11-17T17:58:46.736Z,9.27
2022-11-17T18:01:22.060Z,8.88
2022-11-17T18:03:50.889Z,9.70
2022-11-17T18:06:21.005Z,7.77
2022-11-17T18:08:49.120Z,8.57
2022-11-17T18:11:20.564Z,10.02
2022-11-17T18:13:49.304Z,9.82
2022-11-17T18:16:18.640Z,9.18
2022-11-17T18:18:46.170Z,9.03
2022-11-17T18:21:15.175Z,10.07
2022-11-17T18:23:42.471Z,10.27
2022-11-17T18:26:10.163Z,8.93
2022-11-17T18:28:38.438Z,8.70
2022-11-17T18:31:06.445Z,9.13
2022-11-17T18:33:33.043Z,8.68
2022-11-17T18:36:05.405Z,10.13
2022-11-17T18:38:32.827Z,10.25
2022-11-17T18:41:15.076Z,9.77
2022-11-17T18:43:43.353Z,9.57
2022-11-17T18:46:13.120Z,8.63
2022-11-17T18:48:41.854Z,8.90
2022-11-17T18:51:20.947Z,10.02
2022-11-17T18:53:48.995Z,7.93
2022-11-17T18:56:19.368Z,9.23
2022-11-17T18:58:46.295Z,8.52
2022-11-17T19:01:15.301Z,8.85
2022-11-17T19:03:43.796Z,7.93
2022-11-17T19:06:13.253Z,8.30
2022-11-17T19:08:39.937Z,8.33
2022-11-17T19:11:08.376Z,8.07
2022-11-17T19:13:36.793Z,9.30
2022-11-17T19:16:05.438Z,8.55
2022-11-17T19:18:31.980Z,8.77
2022-11-17T19:21:07.623Z,7.80
2022-11-17T19:23:36.068Z,9.63
2022-11-17T19:26:10.090Z,8.82
2022-11-17T19:28:37.342Z,8.10
2022-11-17T19:31:09.564Z,6.95
2022-11-17T19:33:38.248Z,8.70
2022-11-17T19:36:15.322Z,9.05
2022-11-17T19:38:43.156Z,8.80
2022-11-17T19:41:15.211Z,7.32
2022-11-17T19:43:45.475Z,9.25
2022-11-17T19:46:14.836Z,8.63
2022-11-17T19:48:42.963Z,9.95
2022-11-17T19:51:20.977Z,8.38
2022-11-17T19:53:49.621Z,7.93
2022-11-17T19:56:16.618Z,6.95
2022-11-17T19:58:43.836Z,9.47
2022-11-17T20:01:16.226Z,8.93
2022-11-17T20:03:43.556Z,9.50
2022-11-17T20:06:11.894Z,6.78
2022-11-17T20:08:39.020Z,7.50
2022-11-17T20:11:12.323Z,9.07
2022-11-17T20:13:39.693Z,8.63
2022-11-17T20:16:12.270Z,9.15
2022-11-17T20:18:40.579Z,9.10
2022-11-17T20:21:08.349Z,8.13
2022-11-17T20:23:36.389Z,9.07
2022-11-17T20:26:08.338Z,9.15
2022-11-17T20:28:36.432Z,9.82
2022-11-17T20:31:11.417Z,10.05
2022-11-17T20:33:40.128Z,9.82
2022-11-17T20:36:08.458Z,10.13
2022-11-17T20:38:35.888Z,9.55
2022-11-17T20:41:03.955Z,8.18
2022-11-17T20:43:32.131Z,8.00
2022-11-17T20:45:58.969Z,8.32
2022-11-17T20:48:27.546Z,9.47
2022-11-17T20:51:07.263Z,9.27
2022-11-17T20:53:34.649Z,9.00
2022-11-17T20:56:03.423Z,8.30
2022-11-17T20:58:30.649Z,9.52
2022-11-17T21:00:57.337Z,8.47
2022-11-17T21:03:26.526Z,7.45
2022-11-17T21:05:59.069Z,7.90
2022-11-17T21:08:35.044Z,10.32
2022-11-17T21:11:04.099Z,9.70
2022-11-17T21:13:32.967Z,8.77
2022-11-17T21:16:06.282Z,9.05
2022-11-17T21:18:33.666Z,9.60
2022-11-17T21:21:00.604Z,8.50
2022-11-17T21:23:28.375Z,9.23
2022-11-17T21:25:54.907Z,9.57
2022-11-17T21:28:22.025Z,9.38
2022-11-17T21:30:49.081Z,9.98
2022-11-17T21:33:15.737Z,8.77
2022-11-17T21:35:42.351Z,8.38
2022-11-17T21:38:10.699Z,9.50
2022-11-17T21:40:37.431Z,9.70
2022-11-17T21:43:04.440Z,9.02
2022-11-17T21:45:32.732Z,8.93
2022-11-17T21:47:59.634Z,9.05
2022-11-17T21:50:26.627Z,9.67
2022-11-17T21:52:53.206Z,6.97
2022-11-17T21:55:19.775Z,10.00
2022-11-17T21:57:50.222Z,9.00
2022-11-17T22:00:17.839Z,9.90
2022-11-17T22:02:44.433Z,8.73
2022-11-17T22:05:11.478Z,9.82
2022-11-17T22:07:38.175Z,8.55
2022-11-17T22:10:05.356Z,9.45
2022-11-17T22:12:31.925Z,9.07
2022-11-17T22:14:58.478Z,9.73
2022-11-17T22:17:25.069Z,9.35
2022-11-17T22:19:52.023Z,8.85
2022-11-17T22:22:18.609Z,8.80
2022-11-17T22:24:49.570Z,7.85
2022-11-17T22:27:16.780Z,8.77
2022-11-17T22:29:43.724Z,8.52
2022-11-17T22:32:10.412Z,7.72
2022-11-17T22:34:37.162Z,9.18
2022-11-17T22:37:03.791Z,9.23
2022-11-17T22:39:30.463Z,9.13
2022-11-17T22:41:57.139Z,9.60
2022-11-17T22:44:23.768Z,9.60
2022-11-17T22:46:50.495Z,8.35
2022-11-17T22:49:17.459Z,8.88
2022-11-17T22:52:02.740Z,8.43
2022-11-17T22:54:30.547Z,8.20
2022-11-17T22:56:57.909Z,7.80
2022-11-17T22:59:25.605Z,9.88
2022-11-17T23:01:52.464Z,9.48
2022-11-17T23:04:19.334Z,9.07
2022-11-17T23:06:45.944Z,9.40
2022-11-17T23:09:12.761Z,9.85
2022-11-17T23:11:39.464Z,9.82
2022-11-17T23:14:10.085Z,10.18
2022-11-17T23:16:37.578Z,9.40
2022-11-17T23:19:05.277Z,9.75
2022-11-17T23:21:32.017Z,7.00
2022-11-17T23:23:58.857Z,6.95
2022-11-17T23:26:25.490Z,8.05
2022-11-17T23:28:52.034Z,8.73
2022-11-17T23:31:18.887Z,10.00
2022-11-17T23:33:47.424Z,9.68
2022-11-17T23:36:20.024Z,8.75
2022-11-17T23:38:47.059Z,9.48
2022-11-17T23:41:15.578Z,10.83
2022-11-17T23:43:42.545Z,10.23
2022-11-17T23:46:13.121Z,10.77
2022-11-17T23:48:40.316Z,8.60
2022-11-17T23:51:10.665Z,9.50
2022-11-17T23:53:37.572Z,8.27
2022-11-17T23:56:06.602Z,9.65
2022-11-17T23:58:33.444Z,9.18
